Time;durP1;ratioP1;P1;durP2;ratioP2;P2;SDS_P1;SDS_P2;PMS_P1;PMS_P2;Temp;Humidity;BMP_temperature;BMP_pressure;BME280_temperature;BME280_humidity;BME280_pressure;Samples;Min_cycle;Max_cycle;Signal;HPM_P1;HPM_P2
2021/11/07 00:03:48;;;;;;;9.07;5.30;;;7.20;99.90;;;;;;4158960;28;20506;-82
2021/11/07 00:05:56;;;;;;;10.07;5.20;;;7.20;99.90;;;;;;4156529;28;20474;-82
2021/11/07 00:10:18;;;;;;;7.70;4.93;;;7.30;99.90;;;;;;4159209;28;21007;-82
2021/11/07 00:12:22;;;;;;;8.30;4.93;;;7.30;99.90;;;;;;4162993;28;20476;-80
2021/11/07 00:14:24;;;;;;;11.33;4.93;;;7.30;99.90;;;;;;4161365;28;20618;-81
2021/11/07 00:16:30;;;;;;;7.37;4.27;;;7.30;99.90;;;;;;4164833;28;20490;-81
2021/11/07 00:18:36;;;;;;;8.30;4.43;;;7.30;99.90;;;;;;4169978;28;20758;-83
2021/11/07 00:20:42;;;;;;;8.40;5.00;;;7.30;99.90;;;;;;4167082;28;20478;-81
2021/11/07 00:22:50;;;;;;;9.40;4.80;;;7.30;99.90;;;;;;4166604;28;20545;-84
2021/11/07 00:24:58;;;;;;;9.60;4.20;;;7.30;99.90;;;;;;4162281;28;20562;-85
2021/11/07 00:27:05;;;;;;;6.53;4.10;;;7.30;99.90;;;;;;4167207;28;20480;-82
2021/11/07 00:29:10;;;;;;;8.00;4.33;;;7.30;99.90;;;;;;4155576;28;20496;-82
2021/11/07 00:31:21;;;;;;;8.20;4.03;;;7.40;99.90;;;;;;4164492;28;20543;-83
2021/11/07 00:33:29;;;;;;;7.20;4.33;;;7.40;99.90;;;;;;4162890;28;20459;-84
2021/11/07 00:37:52;;;;;;;8.53;4.60;;;7.50;99.90;;;;;;4160284;28;20448;-84
2021/11/07 00:40:06;;;;;;;6.23;4.17;;;7.40;99.90;;;;;;4156618;28;20476;-84
2021/11/07 00:42:13;;;;;;;6.87;4.27;;;7.40;99.90;;;;;;4158490;28;21014;-84
2021/11/07 00:44:19;;;;;;;7.00;3.90;;;7.40;99.90;;;;;;4157197;28;20481;-82
2021/11/07 00:46:24;;;;;;;7.57;4.10;;;7.40;99.90;;;;;;4162286;28;20464;-84
2021/11/07 00:48:37;;;;;;;7.30;4.37;;;7.40;99.90;;;;;;4152911;28;20959;-84
2021/11/07 00:50:47;;;;;;;7.23;4.27;;;7.40;99.90;;;;;;4157275;28;20460;-85
2021/11/07 00:52:54;;;;;;;6.53;4.13;;;7.40;99.90;;;;;;4167343;28;20542;-85
2021/11/07 00:55:01;;;;;;;6.90;4.43;;;7.40;99.90;;;;;;4166249;28;20479;-84
2021/11/07 00:57:15;;;;;;;9.87;4.40;;;7.40;99.90;;;;;;4166638;28;20468;-83
2021/11/07 01:01:36;;;;;;;7.87;4.27;;;7.40;99.90;;;;;;4161109;28;20484;-85
2021/11/07 01:03:40;;;;;;;8.43;4.27;;;7.40;99.90;;;;;;4166416;28;20893;-84
2021/11/07 01:05:41;;;;;;;7.13;4.17;;;7.30;99.90;;;;;;4166778;28;21144;-82
2021/11/07 01:07:43;;;;;;;6.80;4.00;;;7.30;99.90;;;;;;4167113;28;20979;-83
2021/11/07 01:09:45;;;;;;;6.17;3.77;;;7.40;99.90;;;;;;4158918;28;20490;-82
2021/11/07 01:11:47;;;;;;;6.57;4.13;;;7.30;99.90;;;;;;4168488;28;20499;-83
2021/11/07 01:13:49;;;;;;;9.50;5.10;;;7.30;99.90;;;;;;4169411;28;20477;-83
2021/11/07 01:15:51;;;;;;;8.40;5.03;;;7.50;99.90;;;;;;4172029;28;20452;-81
2021/11/07 01:17:54;;;;;;;10.37;5.07;;;7.30;99.90;;;;;;4169383;28;20479;-81
2021/11/07 01:19:58;;;;;;;8.57;4.90;;;7.40;99.90;;;;;;4174171;28;20506;-84
2021/11/07 01:22:03;;;;;;;9.40;4.60;;;7.20;99.90;;;;;;4170122;28;20516;-82
2021/11/07 01:24:09;;;;;;;7.80;4.73;;;7.20;99.90;;;;;;4169381;28;20547;-85
2021/11/07 01:26:16;;;;;;;9.10;5.23;;;7.20;99.90;;;;;;4171792;28;20454;-82
2021/11/07 01:28:18;;;;;;;7.80;4.70;;;7.20;99.90;;;;;;4168635;28;20566;-81
2021/11/07 01:30:24;;;;;;;9.10;4.90;;;7.20;99.90;;;;;;4170088;28;20463;-80
2021/11/07 01:32:26;;;;;;;7.07;4.23;;;7.20;99.90;;;;;;4169632;28;20549;-83
2021/11/07 01:34:40;;;;;;;8.67;4.67;;;7.20;99.90;;;;;;4166802;28;20878;-83
2021/11/07 01:36:46;;;;;;;8.67;4.80;;;7.20;99.90;;;;;;4167272;28;20472;-83
2021/11/07 01:38:50;;;;;;;8.27;4.50;;;7.20;99.90;;;;;;4164506;28;20462;-82
2021/11/07 01:41:01;;;;;;;7.57;4.27;;;7.20;99.90;;;;;;4164901;28;20472;-84
2021/11/07 01:43:03;;;;;;;8.67;4.97;;;7.20;99.90;;;;;;4166582;28;20495;-83
2021/11/07 01:45:11;;;;;;;9.07;4.50;;;7.30;99.90;;;;;;4165693;28;20823;-83
2021/11/07 01:47:15;;;;;;;9.00;5.00;;;7.20;99.90;;;;;;4164165;28;20970;-83
2021/11/07 01:49:21;;;;;;;9.03;4.97;;;7.20;99.90;;;;;;4166221;28;20958;-84
2021/11/07 01:51:24;;;;;;;6.20;4.10;;;7.10;99.90;;;;;;4164926;28;20488;-84
2021/11/07 01:53:32;;;;;;;7.00;4.40;;;7.10;99.90;;;;;;4166549;28;20466;-83
2021/11/07 01:55:34;;;;;;;6.80;4.10;;;7.10;99.90;;;;;;4164983;28;20477;-83
2021/11/07 01:57:38;;;;;;;6.87;4.00;;;7.10;99.90;;;;;;4164256;28;20479;-83
2021/11/07 01:59:44;;;;;;;6.97;4.50;;;7.10;99.90;;;;;;4160271;28;20475;-84
2021/11/07 02:01:51;;;;;;;8.00;4.13;;;7.00;99.90;;;;;;4164584;28;20502;-83
2021/11/07 02:03:53;;;;;;;6.83;3.70;;;7.00;99.90;;;;;;4168663;28;21069;-83
2021/11/07 02:05:55;;;;;;;5.67;3.80;;;7.00;99.90;;;;;;4167229;28;20533;-83
2021/11/07 02:07:57;;;;;;;6.40;3.90;;;7.00;99.90;;;;;;4168715;28;20519;-83
2021/11/07 02:10:01;;;;;;;6.77;4.27;;;7.00;99.90;;;;;;4160828;28;20474;-83
2021/11/07 02:12:03;;;;;;;7.03;4.00;;;7.00;99.90;;;;;;4164973;28;20828;-83
2021/11/07 02:14:06;;;;;;;6.50;3.77;;;7.00;99.90;;;;;;4166470;28;20501;-83
2021/11/07 02:16:08;;;;;;;7.93;4.23;;;7.00;99.90;;;;;;4167210;28;20467;-84
2021/11/07 02:18:10;;;;;;;6.33;3.70;;;7.00;99.90;;;;;;4165701;28;20948;-84
2021/11/07 02:20:15;;;;;;;7.67;3.73;;;7.00;99.90;;;;;;4169578;28;20876;-82
2021/11/07 02:22:18;;;;;;;6.83;3.67;;;7.00;99.90;;;;;;4190861;22;20543;-77
2021/11/07 02:24:21;;;;;;;5.47;3.50;;;7.00;99.90;;;;;;4179999;28;20459;-77
2021/11/07 02:26:23;;;;;;;8.07;4.00;;;7.00;99.90;;;;;;4174832;28;20459;-77
2021/11/07 02:28:27;;;;;;;5.07;3.50;;;7.00;99.90;;;;;;4182195;28;20459;-77
2021/11/07 02:30:29;;;;;;;6.07;3.70;;;7.00;99.90;;;;;;4180147;28;20958;-77
2021/11/07 02:32:31;;;;;;;6.60;3.70;;;7.00;99.90;;;;;;4182408;28;20471;-77
2021/11/07 02:34:34;;;;;;;5.67;3.43;;;7.00;99.90;;;;;;4176575;28;20472;-77
2021/11/07 02:36:36;;;;;;;5.90;3.47;;;7.00;99.90;;;;;;4166297;28;20460;-77
2021/11/07 02:38:41;;;;;;;6.30;3.83;;;7.00;99.90;;;;;;4180753;28;20458;-78
2021/11/07 02:40:43;;;;;;;6.33;3.40;;;7.10;99.90;;;;;;4176516;28;20475;-78
2021/11/07 02:42:46;;;;;;;5.57;3.80;;;7.10;99.90;;;;;;4165608;28;20484;-77
2021/11/07 02:44:47;;;;;;;7.60;3.80;;;7.10;99.90;;;;;;4165768;28;20846;-79
2021/11/07 02:46:49;;;;;;;6.53;3.20;;;7.10;99.90;;;;;;4180980;28;21023;-79
2021/11/07 02:48:54;;;;;;;6.10;3.60;;;7.30;99.90;;;;;;4181124;28;20500;-79
2021/11/07 02:50:56;;;;;;;7.73;3.27;;;7.10;99.90;;;;;;4181291;28;20557;-79
2021/11/07 02:52:58;;;;;;;5.83;3.23;;;7.20;99.90;;;;;;4182122;28;20510;-79
2021/11/07 02:55:01;;;;;;;5.37;3.17;;;7.20;99.90;;;;;;4177975;28;20537;-79
2021/11/07 02:57:06;;;;;;;5.73;3.30;;;7.20;99.90;;;;;;4171716;28;20526;-79
2021/11/07 02:59:09;;;;;;;6.80;3.17;;;7.20;99.90;;;;;;4165037;28;20770;-79
2021/11/07 03:01:10;;;;;;;5.87;3.50;;;7.20;99.90;;;;;;4171555;28;20474;-79
2021/11/07 03:03:12;;;;;;;6.73;3.27;;;7.30;99.90;;;;;;4181332;28;20555;-77
2021/11/07 03:05:14;;;;;;;5.50;3.20;;;7.30;99.90;;;;;;4180741;28;20481;-77
2021/11/07 03:07:17;;;;;;;5.70;3.50;;;7.30;99.90;;;;;;4175563;28;20844;-79
2021/11/07 03:09:22;;;;;;;6.30;3.70;;;7.20;99.90;;;;;;4170948;28;20816;-79
2021/11/07 03:11:25;;;;;;;5.90;3.70;;;7.30;99.90;;;;;;4174155;28;20465;-77
2021/11/07 03:13:27;;;;;;;6.27;3.63;;;7.30;99.90;;;;;;4165765;28;20460;-79
2021/11/07 03:15:29;;;;;;;5.20;3.03;;;7.30;99.90;;;;;;4165063;28;20484;-77
2021/11/07 03:17:31;;;;;;;5.10;3.13;;;7.30;99.90;;;;;;4179349;28;20502;-79
2021/11/07 03:19:33;;;;;;;6.97;3.50;;;7.30;99.90;;;;;;4181706;28;20495;-77
2021/11/07 03:21:35;;;;;;;6.27;3.37;;;7.30;99.90;;;;;;4170477;28;20915;-77
2021/11/07 03:23:38;;;;;;;7.67;4.07;;;7.30;99.90;;;;;;4171735;28;20574;-77
2021/11/07 03:25:48;;;;;;;5.40;3.80;;;7.40;99.90;;;;;;4180187;28;20464;-77
2021/11/07 03:27:53;;;;;;;8.37;5.03;;;7.30;99.90;;;;;;4170963;28;20448;-77
2021/11/07 03:29:58;;;;;;;9.30;4.73;;;7.40;99.90;;;;;;4181795;28;21111;-79
2021/11/07 03:32:03;;;;;;;6.90;4.00;;;7.40;99.90;;;;;;4171902;28;20510;-79
2021/11/07 03:34:09;;;;;;;8.73;4.40;;;7.40;99.90;;;;;;4181208;28;20976;-77
2021/11/07 03:36:16;;;;;;;7.40;4.10;;;7.40;99.90;;;;;;4164957;28;20511;-77
2021/11/07 03:38:18;;;;;;;8.50;4.53;;;7.30;99.90;;;;;;4180670;28;20448;-77
2021/11/07 03:40:20;;;;;;;7.50;4.17;;;7.30;99.90;;;;;;4174166;28;20550;-80
2021/11/07 03:42:24;;;;;;;7.00;4.27;;;7.30;99.90;;;;;;4180862;28;20976;-79
2021/11/07 03:44:27;;;;;;;7.50;4.53;;;7.30;99.90;;;;;;4180196;28;20522;-79
2021/11/07 03:46:29;;;;;;;8.80;4.50;;;7.30;99.90;;;;;;4169849;28;20492;-79
2021/11/07 03:48:31;;;;;;;8.47;5.17;;;7.30;99.90;;;;;;4176487;28;20493;-79
2021/11/07 03:50:33;;;;;;;10.30;4.73;;;7.20;99.90;;;;;;4179324;28;20551;-79
2021/11/07 03:52:35;;;;;;;7.73;5.10;;;7.20;99.90;;;;;;4180952;28;20522;-79
2021/11/07 03:54:37;;;;;;;9.93;4.67;;;7.20;99.90;;;;;;4179496;28;20460;-78
2021/11/07 03:56:39;;;;;;;6.77;4.43;;;7.20;99.90;;;;;;4172852;28;22831;-79
2021/11/07 03:58:42;;;;;;;8.07;4.77;;;7.20;99.90;;;;;;4180822;28;20524;-79
2021/11/07 04:00:45;;;;;;;9.17;4.67;;;7.20;99.90;;;;;;4176386;28;20471;-79
2021/11/07 04:02:48;;;;;;;7.87;4.47;;;7.20;99.90;;;;;;4171133;28;20489;-79
2021/11/07 04:04:50;;;;;;;7.30;4.37;;;7.20;99.90;;;;;;4164150;28;20464;-79
2021/11/07 04:06:52;;;;;;;7.20;4.23;;;7.20;99.90;;;;;;4184395;28;20884;-79
2021/11/07 04:08:54;;;;;;;6.37;4.03;;;7.20;99.90;;;;;;4179962;28;20444;-79
2021/11/07 04:10:56;;;;;;;7.57;4.40;;;7.20;99.90;;;;;;4178129;28;20491;-77
2021/11/07 04:12:58;;;;;;;7.97;4.03;;;7.20;99.90;;;;;;4180999;28;20479;-79
2021/11/07 04:15:00;;;;;;;6.90;3.80;;;7.20;99.90;;;;;;4173102;28;20472;-77
2021/11/07 04:17:05;;;;;;;8.30;3.87;;;7.20;99.90;;;;;;4165185;28;20855;-79
2021/11/07 04:19:08;;;;;;;9.13;4.17;;;7.20;99.90;;;;;;4165155;28;20478;-79
2021/11/07 04:21:10;;;;;;;7.10;3.80;;;7.20;99.90;;;;;;4172870;28;20941;-79
2021/11/07 04:23:12;;;;;;;6.93;3.33;;;7.20;99.90;;;;;;4175724;28;20892;-79
2021/11/07 04:25:14;;;;;;;6.50;3.43;;;7.20;99.90;;;;;;4162993;28;20547;-79
2021/11/07 04:27:17;;;;;;;6.17;3.30;;;7.20;99.90;;;;;;4178256;28;20484;-79
2021/11/07 04:29:19;;;;;;;4.73;3.23;;;7.20;99.90;;;;;;4181050;28;20459;-79
2021/11/07 04:31:20;;;;;;;5.30;3.53;;;7.20;99.90;;;;;;4174200;28;20958;-79
2021/11/07 04:33:24;;;;;;;6.90;3.70;;;7.20;99.90;;;;;;4177416;28;20600;-79
2021/11/07 04:35:26;;;;;;;7.30;3.73;;;7.20;99.90;;;;;;4182318;28;20460;-77
2021/11/07 04:37:28;;;;;;;6.67;3.90;;;7.20;99.90;;;;;;4179194;28;20510;-77
2021/11/07 04:39:30;;;;;;;7.27;3.73;;;7.20;99.90;;;;;;4178399;28;21138;-77
2021/11/07 04:41:32;;;;;;;5.90;3.50;;;7.20;99.90;;;;;;4177084;28;20740;-77
2021/11/07 04:43:34;;;;;;;8.70;3.57;;;7.20;99.90;;;;;;4179520;28;21000;-77
2021/11/07 04:45:36;;;;;;;5.63;3.37;;;7.20;99.90;;;;;;4180818;28;20514;-79
2021/11/07 04:47:38;;;;;;;6.03;3.67;;;7.30;99.90;;;;;;4170579;28;20472;-77
2021/11/07 04:49:41;;;;;;;6.00;3.13;;;7.30;99.90;;;;;;4177489;28;20478;-77
2021/11/07 04:51:43;;;;;;;6.07;3.10;;;7.20;99.90;;;;;;4177079;28;20552;-79
2021/11/07 04:53:46;;;;;;;6.40;3.27;;;7.30;99.90;;;;;;4183124;28;20517;-79
2021/11/07 04:55:49;;;;;;;7.37;3.70;;;7.30;99.90;;;;;;4175654;28;20563;-77
2021/11/07 04:57:50;;;;;;;5.30;3.43;;;7.30;99.90;;;;;;4177599;28;20471;-77
2021/11/07 04:59:52;;;;;;;5.67;3.30;;;7.30;99.90;;;;;;4178107;28;20482;-79
2021/11/07 05:01:55;;;;;;;7.07;3.40;;;7.30;99.90;;;;;;4175994;28;20549;-79
2021/11/07 05:03:57;;;;;;;5.33;2.77;;;7.30;99.90;;;;;;4181872;28;20490;-77
2021/11/07 05:06:01;;;;;;;5.80;3.43;;;7.30;99.90;;;;;;4188866;28;20833;-78
2021/11/07 05:08:03;;;;;;;6.10;2.90;;;7.30;99.90;;;;;;4166123;28;20474;-77
2021/11/07 05:10:05;;;;;;;5.43;3.23;;;7.30;99.90;;;;;;4191567;28;20480;-79
2021/11/07 05:12:08;;;;;;;5.13;3.10;;;7.30;99.90;;;;;;4176727;28;20542;-80
2021/11/07 05:14:10;;;;;;;6.47;3.43;;;7.40;99.90;;;;;;4173926;28;20459;-79
2021/11/07 05:16:11;;;;;;;5.70;3.20;;;7.40;99.90;;;;;;4178211;28;20460;-79
2021/11/07 05:18:14;;;;;;;7.87;3.60;;;7.40;99.90;;;;;;4175613;28;20820;-79
2021/11/07 05:20:17;;;;;;;6.30;4.00;;;7.40;99.90;;;;;;4187132;28;20935;-78
2021/11/07 05:22:20;;;;;;;7.53;3.70;;;7.40;99.90;;;;;;4180190;28;20870;-77
2021/11/07 05:24:22;;;;;;;5.93;3.40;;;7.40;99.90;;;;;;4169917;28;20980;-78
2021/11/07 05:26:24;;;;;;;5.50;3.13;;;7.40;99.90;;;;;;4163113;28;20456;-79
2021/11/07 05:28:26;;;;;;;7.80;3.73;;;7.40;99.90;;;;;;4165776;28;20875;-79
2021/11/07 05:30:28;;;;;;;6.33;3.77;;;7.40;99.90;;;;;;4169387;28;20957;-79
2021/11/07 05:32:30;;;;;;;6.67;3.73;;;7.40;99.90;;;;;;4171611;28;20515;-79
2021/11/07 05:34:32;;;;;;;5.83;3.20;;;7.40;99.90;;;;;;4179534;28;20787;-78
2021/11/07 05:36:34;;;;;;;8.83;3.70;;;7.40;99.90;;;;;;4175739;28;20564;-79
2021/11/07 05:38:37;;;;;;;6.77;3.60;;;7.40;99.90;;;;;;4180137;28;20542;-78
2021/11/07 05:40:41;;;;;;;5.83;3.40;;;7.40;99.90;;;;;;4181211;28;20456;-78
2021/11/07 05:42:43;;;;;;;5.77;3.50;;;7.40;99.90;;;;;;4174923;28;20525;-79
2021/11/07 05:44:45;;;;;;;5.73;3.47;;;7.40;99.90;;;;;;4181980;28;20494;-78
2021/11/07 05:46:46;;;;;;;6.17;3.60;;;7.30;99.90;;;;;;4181712;28;20463;-78
2021/11/07 05:48:48;;;;;;;6.93;3.80;;;7.30;99.90;;;;;;4180209;28;20475;-78
2021/11/07 05:50:50;;;;;;;7.70;3.90;;;7.40;99.90;;;;;;4178904;28;20476;-79
2021/11/07 05:52:53;;;;;;;9.10;3.97;;;7.30;99.90;;;;;;4175816;28;20491;-79
2021/11/07 05:54:56;;;;;;;6.00;3.47;;;7.30;99.90;;;;;;4181436;28;20452;-79
2021/11/07 05:57:00;;;;;;;5.23;3.43;;;7.40;99.90;;;;;;4174844;28;20808;-79
2021/11/07 05:59:02;;;;;;;5.20;3.23;;;7.40;99.90;;;;;;4176471;28;20559;-79
2021/11/07 06:01:04;;;;;;;5.37;3.67;;;7.30;99.90;;;;;;4179922;28;20525;-79
2021/11/07 06:03:07;;;;;;;5.93;3.50;;;7.40;99.90;;;;;;4181840;28;20481;-78
2021/11/07 06:05:09;;;;;;;6.43;3.90;;;7.30;99.90;;;;;;4169580;28;20993;-78
2021/11/07 06:07:11;;;;;;;6.77;4.10;;;7.30;99.90;;;;;;4174866;28;20481;-78
2021/11/07 06:09:13;;;;;;;7.93;4.37;;;7.30;99.90;;;;;;4172332;28;20943;-78
2021/11/07 06:11:16;;;;;;;6.07;3.77;;;7.40;99.90;;;;;;4179217;28;20479;-78
2021/11/07 06:13:18;;;;;;;7.17;3.80;;;7.30;99.90;;;;;;4166250;28;20453;-78
2021/11/07 06:15:20;;;;;;;5.77;3.70;;;7.30;99.90;;;;;;4179902;28;20456;-79
2021/11/07 06:17:21;;;;;;;7.20;3.80;;;7.30;99.90;;;;;;4174407;28;20460;-79
2021/11/07 06:19:23;;;;;;;7.63;3.80;;;7.30;99.90;;;;;;4181378;28;20480;-78
2021/11/07 06:21:25;;;;;;;7.20;3.43;;;7.30;99.90;;;;;;4179086;28;22417;-79
2021/11/07 06:23:26;;;;;;;6.07;3.33;;;7.30;99.90;;;;;;4178724;28;20526;-78
2021/11/07 06:25:28;;;;;;;5.90;3.40;;;7.40;99.90;;;;;;4180677;28;20492;-77
2021/11/07 06:27:33;;;;;;;4.73;3.30;;;7.40;99.90;;;;;;4181270;28;20967;-79
2021/11/07 06:29:35;;;;;;;6.67;3.40;;;7.40;99.90;;;;;;4167341;28;20468;-78
2021/11/07 06:31:37;;;;;;;5.60;3.57;;;7.40;99.90;;;;;;4178154;28;20481;-79
2021/11/07 06:33:39;;;;;;;5.43;3.40;;;7.40;99.90;;;;;;4181163;28;20472;-79
2021/11/07 06:35:41;;;;;;;6.57;3.43;;;7.40;99.90;;;;;;4169888;28;20718;-79
2021/11/07 06:37:43;;;;;;;6.60;3.80;;;7.50;99.90;;;;;;4176835;28;20477;-79
2021/11/07 06:39:46;;;;;;;5.03;3.13;;;7.40;99.90;;;;;;4184597;28;20453;-78
2021/11/07 06:41:47;;;;;;;6.90;3.43;;;7.50;99.90;;;;;;4171607;28;21039;-78
2021/11/07 06:43:51;;;;;;;5.97;3.33;;;7.50;99.90;;;;;;4170647;28;20481;-78
2021/11/07 06:45:53;;;;;;;5.77;3.17;;;7.50;99.90;;;;;;4180329;28;20451;-78
2021/11/07 06:47:55;;;;;;;5.37;3.47;;;7.50;99.90;;;;;;4177398;28;20479;-78
2021/11/07 06:49:58;;;;;;;6.37;3.10;;;7.60;99.90;;;;;;4172797;28;20874;-79
2021/11/07 06:52:00;;;;;;;5.63;3.57;;;7.60;99.90;;;;;;4166991;28;21001;-79
2021/11/07 06:54:02;;;;;;;7.50;3.60;;;7.60;99.90;;;;;;4164672;28;20536;-78
2021/11/07 06:56:06;;;;;;;5.40;3.30;;;7.60;99.90;;;;;;4164042;28;20539;-79
2021/11/07 06:58:07;;;;;;;5.20;3.10;;;7.60;99.90;;;;;;4162947;28;20702;-79
2021/11/07 07:00:15;;;;;;;5.80;3.40;;;7.60;99.90;;;;;;4164705;28;20465;-79
2021/11/07 07:02:17;;;;;;;6.83;3.90;;;7.70;99.90;;;;;;4172162;28;20470;-78
2021/11/07 07:04:18;;;;;;;6.33;3.47;;;7.70;99.90;;;;;;4179984;28;20527;-79
2021/11/07 07:06:20;;;;;;;5.20;3.30;;;7.70;99.90;;;;;;4174453;28;20530;-79
2021/11/07 07:08:25;;;;;;;5.83;3.60;;;7.70;99.90;;;;;;4175302;28;20888;-78
2021/11/07 07:10:30;;;;;;;5.83;3.80;;;7.70;99.90;;;;;;4169622;28;20543;-79
2021/11/07 07:12:36;;;;;;;6.23;3.67;;;7.70;99.90;;;;;;4171614;28;20575;-78
2021/11/07 07:14:42;;;;;;;5.43;3.20;;;7.70;99.90;;;;;;4178675;28;20543;-78
2021/11/07 07:16:53;;;;;;;6.00;3.53;;;7.70;99.90;;;;;;4186382;28;20456;-79
2021/11/07 07:19:05;;;;;;;5.03;3.17;;;7.70;99.90;;;;;;4179673;28;20461;-78
2021/11/07 07:21:15;;;;;;;5.73;3.60;;;7.70;99.90;;;;;;4170010;28;20490;-79
2021/11/07 07:23:37;;;;;;;6.07;4.00;;;7.80;99.90;;;;;;4174718;28;20922;-79
2021/11/07 07:28:25;;;;;;;9.00;4.03;;;7.70;99.90;;;;;;4158623;28;20977;-79
2021/11/07 07:30:38;;;;;;;8.80;4.10;;;7.70;99.90;;;;;;4171816;28;20694;-79
2021/11/07 07:32:53;;;;;;;6.90;4.17;;;7.70;99.90;;;;;;4167030;28;20489;-78
2021/11/07 07:34:58;;;;;;;8.53;4.30;;;7.60;99.90;;;;;;4170560;28;20463;-78
2021/11/07 07:36:59;;;;;;;6.80;4.07;;;7.60;99.90;;;;;;4175257;28;20997;-78
2021/11/07 07:39:02;;;;;;;7.17;4.10;;;7.60;99.90;;;;;;4180006;28;20460;-78
2021/11/07 07:41:04;;;;;;;7.10;3.80;;;7.60;99.90;;;;;;4170353;28;20530;-78
2021/11/07 07:43:06;;;;;;;7.97;4.30;;;7.60;99.90;;;;;;4169851;28;20494;-78
2021/11/07 07:45:08;;;;;;;6.20;3.83;;;7.50;99.90;;;;;;4171288;28;20492;-79
2021/11/07 07:47:10;;;;;;;6.33;4.43;;;7.50;99.90;;;;;;4160228;28;20452;-78
2021/11/07 07:49:16;;;;;;;6.53;4.07;;;7.50;99.90;;;;;;4165218;28;20961;-78
2021/11/07 07:51:18;;;;;;;5.53;3.63;;;7.50;99.90;;;;;;4167545;28;20469;-79
2021/11/07 07:53:22;;;;;;;6.13;3.90;;;7.50;99.90;;;;;;4167755;28;20488;-79
2021/11/07 07:55:24;;;;;;;6.27;3.80;;;7.50;99.90;;;;;;4173407;28;20563;-79
2021/11/07 07:57:29;;;;;;;7.03;3.60;;;7.50;99.90;;;;;;4171782;28;20469;-79
2021/11/07 07:59:30;;;;;;;7.20;4.40;;;7.50;99.90;;;;;;4172954;28;20544;-78
2021/11/07 08:01:33;;;;;;;9.37;4.37;;;7.60;99.90;;;;;;4173990;28;20464;-79
2021/11/07 08:03:35;;;;;;;6.07;4.00;;;7.50;99.90;;;;;;4170182;28;20472;-79
2021/11/07 08:05:39;;;;;;;7.53;4.10;;;7.50;99.90;;;;;;4173836;28;20491;-79
2021/11/07 08:07:42;;;;;;;6.73;3.83;;;7.50;99.90;;;;;;4175775;28;20903;-79
2021/11/07 08:09:48;;;;;;;6.87;4.23;;;7.50;99.90;;;;;;4178484;28;20467;-79
2021/11/07 08:11:50;;;;;;;6.23;3.93;;;7.50;99.90;;;;;;4181144;28;20564;-79
2021/11/07 08:13:53;;;;;;;6.53;3.90;;;7.60;99.90;;;;;;4179410;28;20519;-78
2021/11/07 08:15:55;;;;;;;5.63;3.57;;;7.50;99.90;;;;;;4179361;28;20842;-79
2021/11/07 08:17:56;;;;;;;6.77;3.70;;;7.50;99.90;;;;;;4176228;28;20579;-78
2021/11/07 08:19:58;;;;;;;5.37;3.40;;;7.50;99.90;;;;;;4174786;28;20975;-79
2021/11/07 08:22:01;;;;;;;5.40;3.30;;;7.60;99.90;;;;;;4211084;22;20854;-78
2021/11/07 08:24:05;;;;;;;6.37;3.53;;;7.60;99.90;;;;;;4226707;28;20466;-78
2021/11/07 08:26:08;;;;;;;5.57;3.60;;;7.60;99.90;;;;;;4228697;28;20485;-78
2021/11/07 08:28:10;;;;;;;5.23;3.40;;;7.50;99.90;;;;;;4220183;28;20453;-78
2021/11/07 08:30:15;;;;;;;6.73;4.20;;;7.50;99.90;;;;;;4220112;28;20459;-78
2021/11/07 08:32:17;;;;;;;6.77;3.90;;;7.50;99.90;;;;;;4221312;28;20989;-78
2021/11/07 08:34:22;;;;;;;5.87;3.50;;;7.60;99.90;;;;;;4229323;28;20862;-78
2021/11/07 08:36:27;;;;;;;6.77;3.47;;;7.60;99.90;;;;;;4228845;28;20472;-78
2021/11/07 08:38:35;;;;;;;7.03;3.50;;;7.60;99.90;;;;;;4226592;28;20477;-78
2021/11/07 08:40:41;;;;;;;5.43;3.37;;;7.60;99.90;;;;;;4227542;28;20476;-78
2021/11/07 08:42:46;;;;;;;5.77;3.17;;;7.50;99.90;;;;;;4229911;28;20477;-78
2021/11/07 08:54:33;;;;;;;4.70;2.83;;;7.60;99.90;;;;;;4228374;28;20453;-77
2021/11/07 09:01:18;;;;;;;4.30;2.50;;;7.60;99.90;;;;;;4229783;28;20936;-77
2021/11/07 09:03:29;;;;;;;3.70;2.40;;;7.60;99.90;;;;;;4229372;28;20468;-78
2021/11/07 09:05:35;;;;;;;3.13;2.23;;;7.60;99.90;;;;;;4226201;28;20534;-78
2021/11/07 09:07:50;;;;;;;3.83;2.10;;;7.60;99.90;;;;;;4227553;28;20461;-78
2021/11/07 09:09:59;;;;;;;3.53;2.33;;;7.60;99.90;;;;;;4229059;28;20457;-77
2021/11/07 09:12:03;;;;;;;3.23;1.90;;;7.70;99.90;;;;;;4231720;28;20477;-78
2021/11/07 09:14:05;;;;;;;2.70;1.73;;;7.70;99.90;;;;;;4227371;28;20474;-77
2021/11/07 09:16:09;;;;;;;3.90;1.73;;;7.70;99.90;;;;;;4228452;28;20544;-78
2021/11/07 09:18:16;;;;;;;3.17;1.60;;;7.70;99.90;;;;;;4225212;28;20478;-78
2021/11/07 09:20:25;;;;;;;2.60;1.80;;;7.70;99.90;;;;;;4222366;28;20454;-77
2021/11/07 09:22:33;;;;;;;3.53;1.70;;;7.80;99.90;;;;;;4223886;28;20613;-77
2021/11/07 09:24:38;;;;;;;2.90;1.50;;;7.80;99.90;;;;;;4222016;28;20465;-77
2021/11/07 09:26:46;;;;;;;3.37;1.57;;;7.80;99.90;;;;;;4224146;27;20449;-78
2021/11/07 09:28:51;;;;;;;1.90;1.20;;;7.80;99.90;;;;;;4222747;28;20488;-78
2021/11/07 09:31:00;;;;;;;1.83;1.20;;;7.90;99.90;;;;;;4232919;28;20467;-78
2021/11/07 09:33:09;;;;;;;2.00;1.17;;;7.90;99.90;;;;;;4231730;28;20527;-77
2021/11/07 09:35:20;;;;;;;0.93;0.80;;;8.00;99.90;;;;;;4230393;28;20457;-77
2021/11/07 09:37:26;;;;;;;1.80;1.17;;;7.90;99.90;;;;;;4227449;28;21026;-78
2021/11/07 09:39:35;;;;;;;1.00;0.90;;;8.00;99.90;;;;;;4228553;28;20460;-78
2021/11/07 09:41:49;;;;;;;1.63;1.00;;;8.00;99.90;;;;;;4223857;28;20523;-78
2021/11/07 09:43:55;;;;;;;1.50;1.00;;;8.00;99.90;;;;;;4227411;28;20442;-78
2021/11/07 09:46:08;;;;;;;1.73;1.30;;;8.00;99.90;;;;;;4224908;28;20858;-78
2021/11/07 09:48:15;;;;;;;1.63;1.10;;;8.10;99.90;;;;;;4226988;28;20437;-78
2021/11/07 09:50:18;;;;;;;2.13;1.10;;;8.10;99.90;;;;;;4227134;28;21040;-78
2021/11/07 09:52:24;;;;;;;2.10;1.20;;;8.10;99.90;;;;;;4223837;28;20503;-78
2021/11/07 09:54:28;;;;;;;1.73;1.10;;;8.10;99.90;;;;;;4220879;28;20466;-78
2021/11/07 09:56:30;;;;;;;1.33;1.00;;;8.10;99.90;;;;;;4225746;28;20543;-78
2021/11/07 09:58:32;;;;;;;1.73;1.23;;;8.10;99.90;;;;;;4220982;28;20476;-78
2021/11/07 10:00:42;;;;;;;2.17;1.33;;;8.10;99.90;;;;;;4223461;28;20470;-78
2021/11/07 10:02:46;;;;;;;2.67;1.67;;;8.10;99.90;;;;;;4227865;28;20874;-78
2021/11/07 10:04:49;;;;;;;1.80;1.33;;;8.20;99.90;;;;;;4229895;28;20516;-78
2021/11/07 10:06:52;;;;;;;2.37;1.47;;;8.10;99.90;;;;;;4228083;28;20536;-78
2021/11/07 10:08:55;;;;;;;3.50;1.50;;;8.10;99.90;;;;;;4226591;28;20489;-77
2021/11/07 10:11:06;;;;;;;1.87;1.33;;;8.10;99.90;;;;;;4226814;28;20548;-77
2021/11/07 10:13:11;;;;;;;1.60;1.20;;;8.10;99.90;;;;;;4229872;28;20530;-78
2021/11/07 10:15:22;;;;;;;2.90;1.37;;;8.00;99.90;;;;;;4229534;28;20549;-78
2021/11/07 10:17:30;;;;;;;3.93;1.27;;;8.10;99.90;;;;;;4226220;28;20469;-78
2021/11/07 10:19:35;;;;;;;2.37;1.40;;;8.10;99.90;;;;;;4227747;28;20461;-76
2021/11/07 10:21:51;;;;;;;1.60;1.10;;;8.10;99.90;;;;;;4227414;28;20462;-78
2021/11/07 10:24:04;;;;;;;1.17;1.07;;;8.10;99.90;;;;;;4231332;28;20912;-78
2021/11/07 10:26:13;;;;;;;1.40;1.00;;;8.10;99.90;;;;;;4230981;28;20520;-78
2021/11/07 10:28:18;;;;;;;1.67;1.10;;;8.10;99.90;;;;;;4231977;28;20973;-78
2021/11/07 10:30:24;;;;;;;1.30;0.90;;;8.10;99.90;;;;;;4229885;28;20477;-78
2021/11/07 10:32:34;;;;;;;0.90;0.80;;;8.20;99.90;;;;;;4230225;28;20486;-78
2021/11/07 10:35:11;;;;;;;1.73;1.00;;;8.20;99.90;;;;;;4230463;28;20464;-78
2021/11/07 10:37:30;;;;;;;0.80;0.80;;;8.20;99.90;;;;;;4229219;28;20469;-77
2021/11/07 10:39:43;;;;;;;2.37;1.07;;;8.20;99.90;;;;;;4229597;28;20485;-79
2021/11/07 10:44:25;;;;;;;1.23;0.97;;;8.20;99.90;;;;;;4231766;28;20946;-78
2021/11/07 10:46:40;;;;;;;1.43;1.10;;;8.20;99.90;;;;;;4229874;28;20497;-80
2021/11/07 10:53:28;;;;;;;1.17;0.90;;;8.30;99.90;;;;;;4231109;28;20449;-80
2021/11/07 10:55:35;;;;;;;1.47;0.90;;;8.30;99.90;;;;;;4227329;28;20978;-78
2021/11/07 10:57:36;;;;;;;1.03;0.93;;;8.30;99.90;;;;;;4230661;28;20451;-78
2021/11/07 10:59:40;;;;;;;1.53;1.00;;;8.40;99.90;;;;;;4229510;28;20466;-78
2021/11/07 11:01:43;;;;;;;0.70;0.60;;;8.40;99.90;;;;;;4228211;28;20510;-77
2021/11/07 11:03:50;;;;;;;0.73;0.70;;;8.50;99.90;;;;;;4228150;28;20460;-76
2021/11/07 11:05:58;;;;;;;1.83;0.73;;;8.50;99.90;;;;;;4227836;28;20478;-77
2021/11/07 11:08:04;;;;;;;1.20;0.80;;;8.60;99.90;;;;;;4224799;28;20972;-79
2021/11/07 11:10:14;;;;;;;0.73;0.70;;;8.60;99.90;;;;;;4219651;28;20465;-77
2021/11/07 11:12:20;;;;;;;1.27;0.93;;;8.60;99.90;;;;;;4225879;28;20910;-77
2021/11/07 11:14:25;;;;;;;1.17;0.80;;;8.70;99.90;;;;;;4218878;28;20463;-78
2021/11/07 11:16:36;;;;;;;1.57;0.80;;;8.70;99.90;;;;;;4222216;28;20454;-77
2021/11/07 11:21:29;;;;;;;1.07;0.73;;;8.80;99.90;;;;;;4217189;28;20463;-77
2021/11/07 11:23:50;;;;;;;2.10;1.10;;;8.90;99.90;;;;;;4219920;28;20554;-76
2021/11/07 11:26:15;;;;;;;1.10;1.00;;;9.00;99.90;;;;;;4222076;28;20228;-78
2021/11/07 11:28:29;;;;;;;1.60;0.90;;;9.10;99.90;;;;;;4222642;28;20947;-77
2021/11/07 11:30:51;;;;;;;1.73;0.90;;;9.10;99.90;;;;;;4222932;28;20466;-77
2021/11/07 11:32:56;;;;;;;1.43;1.20;;;9.20;99.90;;;;;;4229272;28;20715;-76
2021/11/07 11:35:03;;;;;;;1.50;1.10;;;9.20;99.90;;;;;;4224030;28;20201;-78